sensor_id;sensor_type;location;lat;lon;timestamp;temperature;humidity
67942;SHT31;54731;42.600;23.476;2022-08-21T00:00:53;17.68;85.23
67942;SHT31;54731;42.600;23.476;2022-08-21T00:03:19;17.71;85.16
67942;SHT31;54731;42.600;23.476;2022-08-21T00:05:48;17.71;85.55
67942;SHT31;54731;42.600;23.476;2022-08-21T00:08:18;17.73;85.80
67942;SHT31;54731;42.600;23.476;2022-08-21T00:10:45;17.75;85.82
67942;SHT31;54731;42.600;23.476;2022-08-21T00:13:12;17.77;85.64
67942;SHT31;54731;42.600;23.476;2022-08-21T00:15:38;17.73;85.88
67942;SHT31;54731;42.600;23.476;2022-08-21T00:18:06;17.75;86.27
67942;SHT31;54731;42.600;23.476;2022-08-21T00:20:33;17.73;85.95
67942;SHT31;54731;42.600;23.476;2022-08-21T00:22:58;17.71;85.89
67942;SHT31;54731;42.600;23.476;2022-08-21T00:25:24;17.67;86.11
67942;SHT31;54731;42.600;23.476;2022-08-21T00:27:50;17.68;86.39
67942;SHT31;54731;42.600;23.476;2022-08-21T00:30:16;17.73;86.29
67942;SHT31;54731;42.600;23.476;2022-08-21T00:32:42;17.73;86.14
67942;SHT31;54731;42.600;23.476;2022-08-21T00:35:12;17.66;86.64
67942;SHT31;54731;42.600;23.476;2022-08-21T00:37:39;17.67;86.47
67942;SHT31;54731;42.600;23.476;2022-08-21T00:40:07;17.68;86.30
67942;SHT31;54731;42.600;23.476;2022-08-21T00:42:34;17.66;86.42
67942;SHT31;54731;42.600;23.476;2022-08-21T00:45:00;17.66;86.41
67942;SHT31;54731;42.600;23.476;2022-08-21T00:47:25;17.64;86.59
67942;SHT31;54731;42.600;23.476;2022-08-21T00:49:50;17.64;86.18
67942;SHT31;54731;42.600;23.476;2022-08-21T00:52:22;17.60;86.19
67942;SHT31;54731;42.600;23.476;2022-08-21T00:54:50;17.60;86.15
67942;SHT31;54731;42.600;23.476;2022-08-21T00:57:29;17.57;86.31
67942;SHT31;54731;42.600;23.476;2022-08-21T00:59:58;17.61;86.24
67942;SHT31;54731;42.600;23.476;2022-08-21T01:02:25;17.60;86.42
67942;SHT31;54731;42.600;23.476;2022-08-21T01:04:51;17.64;86.19
67942;SHT31;54731;42.600;23.476;2022-08-21T01:07:17;17.68;86.56
67942;SHT31;54731;42.600;23.476;2022-08-21T01:09:45;17.66;86.94
67942;SHT31;54731;42.600;23.476;2022-08-21T01:12:11;17.64;86.93
67942;SHT31;54731;42.600;23.476;2022-08-21T01:14:38;17.66;86.68
67942;SHT31;54731;42.600;23.476;2022-08-21T01:17:05;17.67;86.73
67942;SHT31;54731;42.600;23.476;2022-08-21T01:19:32;17.63;86.94
67942;SHT31;54731;42.600;23.476;2022-08-21T01:21:57;17.63;86.83
67942;SHT31;54731;42.600;23.476;2022-08-21T01:24:25;17.70;86.46
67942;SHT31;54731;42.600;23.476;2022-08-21T01:26:51;17.70;86.15
67942;SHT31;54731;42.600;23.476;2022-08-21T01:29:34;17.66;86.15
67942;SHT31;54731;42.600;23.476;2022-08-21T01:32:09;17.67;86.30
67942;SHT31;54731;42.600;23.476;2022-08-21T01:34:37;17.64;85.72
67942;SHT31;54731;42.600;23.476;2022-08-21T01:37:03;17.60;85.50
67942;SHT31;54731;42.600;23.476;2022-08-21T01:39:29;17.57;85.76
67942;SHT31;54731;42.600;23.476;2022-08-21T01:41:55;17.61;85.65
67942;SHT31;54731;42.600;23.476;2022-08-21T01:44:24;17.60;84.82
67942;SHT31;54731;42.600;23.476;2022-08-21T01:46:50;17.55;85.07
67942;SHT31;54731;42.600;23.476;2022-08-21T01:49:16;17.57;84.84
67942;SHT31;54731;42.600;23.476;2022-08-21T01:51:42;17.54;85.05
67942;SHT31;54731;42.600;23.476;2022-08-21T01:54:07;17.46;84.85
67942;SHT31;54731;42.600;23.476;2022-08-21T01:56:52;17.57;84.71
67942;SHT31;54731;42.600;23.476;2022-08-21T01:59:19;17.48;84.84
67942;SHT31;54731;42.600;23.476;2022-08-21T02:01:45;17.51;85.08
67942;SHT31;54731;42.600;23.476;2022-08-21T02:04:11;17.46;84.59
67942;SHT31;54731;42.600;23.476;2022-08-21T02:06:38;17.41;84.82
67942;SHT31;54731;42.600;23.476;2022-08-21T02:09:05;17.40;84.63
67942;SHT31;54731;42.600;23.476;2022-08-21T02:11:32;17.30;84.97
67942;SHT31;54731;42.600;23.476;2022-08-21T02:13:57;17.30;84.80
67942;SHT31;54731;42.600;23.476;2022-08-21T02:16:23;17.31;84.74
67942;SHT31;54731;42.600;23.476;2022-08-21T02:18:49;17.24;84.92
67942;SHT31;54731;42.600;23.476;2022-08-21T02:21:15;17.22;85.00
67942;SHT31;54731;42.600;23.476;2022-08-21T02:23:40;17.16;85.22
67942;SHT31;54731;42.600;23.476;2022-08-21T02:26:07;17.19;84.74
67942;SHT31;54731;42.600;23.476;2022-08-21T02:28:34;17.24;84.36
67942;SHT31;54731;42.600;23.476;2022-08-21T02:31:00;17.22;84.33
67942;SHT31;54731;42.600;23.476;2022-08-21T02:33:26;17.20;84.37
67942;SHT31;54731;42.600;23.476;2022-08-21T02:35:53;17.13;84.75
67942;SHT31;54731;42.600;23.476;2022-08-21T02:38:22;17.06;85.21
67942;SHT31;54731;42.600;23.476;2022-08-21T02:40:49;17.03;85.23
67942;SHT31;54731;42.600;23.476;2022-08-21T02:43:16;17.09;85.23
67942;SHT31;54731;42.600;23.476;2022-08-21T02:45:43;17.07;85.57
67942;SHT31;54731;42.600;23.476;2022-08-21T02:48:11;17.13;85.49
67942;SHT31;54731;42.600;23.476;2022-08-21T02:50:41;17.07;85.80
67942;SHT31;54731;42.600;23.476;2022-08-21T02:53:10;16.95;86.32
67942;SHT31;54731;42.600;23.476;2022-08-21T02:55:37;16.99;86.15
67942;SHT31;54731;42.600;23.476;2022-08-21T02:58:06;17.02;86.18
67942;SHT31;54731;42.600;23.476;2022-08-21T03:00:33;17.05;86.24
67942;SHT31;54731;42.600;23.476;2022-08-21T03:03:00;17.12;85.67
67942;SHT31;54731;42.600;23.476;2022-08-21T03:05:28;17.10;85.86
67942;SHT31;54731;42.600;23.476;2022-08-21T03:07:57;17.09;85.83
67942;SHT31;54731;42.600;23.476;2022-08-21T03:10:23;17.09;86.15
67942;SHT31;54731;42.600;23.476;2022-08-21T03:12:50;17.12;85.87
67942;SHT31;54731;42.600;23.476;2022-08-21T03:15:20;17.12;86.04
67942;SHT31;54731;42.600;23.476;2022-08-21T03:17:46;17.16;86.24
67942;SHT31;54731;42.600;23.476;2022-08-21T03:20:13;17.15;86.46
67942;SHT31;54731;42.600;23.476;2022-08-21T03:22:39;17.10;86.40
67942;SHT31;54731;42.600;23.476;2022-08-21T03:25:05;17.13;86.30
67942;SHT31;54731;42.600;23.476;2022-08-21T03:27:31;17.12;86.42
67942;SHT31;54731;42.600;23.476;2022-08-21T03:29:57;17.13;86.50
67942;SHT31;54731;42.600;23.476;2022-08-21T03:32:22;17.15;86.57
67942;SHT31;54731;42.600;23.476;2022-08-21T03:34:48;17.13;86.70
67942;SHT31;54731;42.600;23.476;2022-08-21T03:37:14;17.17;86.67
67942;SHT31;54731;42.600;23.476;2022-08-21T03:39:40;17.22;86.55
67942;SHT31;54731;42.600;23.476;2022-08-21T03:42:07;17.26;86.54
67942;SHT31;54731;42.600;23.476;2022-08-21T03:44:33;17.22;86.47
67942;SHT31;54731;42.600;23.476;2022-08-21T03:47:00;17.22;86.30
67942;SHT31;54731;42.600;23.476;2022-08-21T03:49:25;17.28;85.97
67942;SHT31;54731;42.600;23.476;2022-08-21T03:51:51;17.23;86.26
67942;SHT31;54731;42.600;23.476;2022-08-21T03:54:16;17.20;86.43
67942;SHT31;54731;42.600;23.476;2022-08-21T03:56:42;17.27;86.36
67942;SHT31;54731;42.600;23.476;2022-08-21T03:59:08;17.24;86.41
67942;SHT31;54731;42.600;23.476;2022-08-21T04:01:33;17.17;86.63
67942;SHT31;54731;42.600;23.476;2022-08-21T04:03:59;17.17;86.54
67942;SHT31;54731;42.600;23.476;2022-08-21T04:06:25;17.22;86.19
67942;SHT31;54731;42.600;23.476;2022-08-21T04:08:52;17.19;86.60
67942;SHT31;54731;42.600;23.476;2022-08-21T04:11:17;17.20;86.46
67942;SHT31;54731;42.600;23.476;2022-08-21T04:13:43;17.22;86.21
67942;SHT31;54731;42.600;23.476;2022-08-21T04:16:09;17.24;86.21
67942;SHT31;54731;42.600;23.476;2022-08-21T04:18:34;17.19;86.22
67942;SHT31;54731;42.600;23.476;2022-08-21T04:21:01;17.22;86.19
67942;SHT31;54731;42.600;23.476;2022-08-21T04:23:27;17.17;86.55
67942;SHT31;54731;42.600;23.476;2022-08-21T04:25:53;17.23;85.98
67942;SHT31;54731;42.600;23.476;2022-08-21T04:28:20;17.23;85.99
67942;SHT31;54731;42.600;23.476;2022-08-21T04:30:46;17.17;85.93
67942;SHT31;54731;42.600;23.476;2022-08-21T04:33:12;17.16;86.40
67942;SHT31;54731;42.600;23.476;2022-08-21T04:35:38;17.16;86.38
67942;SHT31;54731;42.600;23.476;2022-08-21T04:38:03;17.16;86.41
67942;SHT31;54731;42.600;23.476;2022-08-21T04:40:29;17.20;86.49
67942;SHT31;54731;42.600;23.476;2022-08-21T04:43:01;17.16;86.56
67942;SHT31;54731;42.600;23.476;2022-08-21T04:45:30;17.15;86.48
67942;SHT31;54731;42.600;23.476;2022-08-21T04:47:59;17.19;86.46
67942;SHT31;54731;42.600;23.476;2022-08-21T04:50:41;17.22;86.33
67942;SHT31;54731;42.600;23.476;2022-08-21T04:53:12;17.20;86.39
67942;SHT31;54731;42.600;23.476;2022-08-21T04:55:39;17.20;86.63
67942;SHT31;54731;42.600;23.476;2022-08-21T04:58:06;17.20;86.79
67942;SHT31;54731;42.600;23.476;2022-08-21T05:00:32;17.28;86.87
67942;SHT31;54731;42.600;23.476;2022-08-21T05:02:59;17.31;87.34
67942;SHT31;54731;42.600;23.476;2022-08-21T05:05:27;17.28;87.00
67942;SHT31;54731;42.600;23.476;2022-08-21T05:07:54;17.34;86.34
67942;SHT31;54731;42.600;23.476;2022-08-21T05:10:21;17.37;85.59
67942;SHT31;54731;42.600;23.476;2022-08-21T05:12:47;17.38;85.15
67942;SHT31;54731;42.600;23.476;2022-08-21T05:15:14;17.44;85.39
67942;SHT31;54731;42.600;23.476;2022-08-21T05:17:41;17.53;84.60
67942;SHT31;54731;42.600;23.476;2022-08-21T05:20:08;17.64;84.35
67942;SHT31;54731;42.600;23.476;2022-08-21T05:22:34;17.78;85.94
67942;SHT31;54731;42.600;23.476;2022-08-21T05:24:59;17.91;86.43
67942;SHT31;54731;42.600;23.476;2022-08-21T05:27:25;18.00;85.67
67942;SHT31;54731;42.600;23.476;2022-08-21T05:29:50;18.12;85.36
67942;SHT31;54731;42.600;23.476;2022-08-21T05:32:15;18.24;84.87
67942;SHT31;54731;42.600;23.476;2022-08-21T05:34:41;18.38;84.90
67942;SHT31;54731;42.600;23.476;2022-08-21T05:37:06;18.45;84.31
67942;SHT31;54731;42.600;23.476;2022-08-21T05:39:32;18.45;84.71
67942;SHT31;54731;42.600;23.476;2022-08-21T05:41:57;18.39;84.99
67942;SHT31;54731;42.600;23.476;2022-08-21T05:44:23;18.32;84.97
67942;SHT31;54731;42.600;23.476;2022-08-21T05:46:49;18.32;85.14
67942;SHT31;54731;42.600;23.476;2022-08-21T05:49:14;18.39;85.11
67942;SHT31;54731;42.600;23.476;2022-08-21T05:51:41;18.51;84.74
67942;SHT31;54731;42.600;23.476;2022-08-21T05:54:07;18.55;85.10
67942;SHT31;54731;42.600;23.476;2022-08-21T05:56:32;18.48;84.94
67942;SHT31;54731;42.600;23.476;2022-08-21T05:58:58;18.57;84.90
67942;SHT31;54731;42.600;23.476;2022-08-21T06:01:24;18.74;85.13
67942;SHT31;54731;42.600;23.476;2022-08-21T06:03:49;18.96;84.69
67942;SHT31;54731;42.600;23.476;2022-08-21T06:06:15;19.03;83.98
67942;SHT31;54731;42.600;23.476;2022-08-21T06:08:41;18.97;82.89
67942;SHT31;54731;42.600;23.476;2022-08-21T06:11:07;19.04;82.95
67942;SHT31;54731;42.600;23.476;2022-08-21T06:13:35;18.97;82.48
67942;SHT31;54731;42.600;23.476;2022-08-21T06:16:12;19.02;82.89
67942;SHT31;54731;42.600;23.476;2022-08-21T06:18:38;19.08;82.80
67942;SHT31;54731;42.600;23.476;2022-08-21T06:21:05;19.20;82.68
67942;SHT31;54731;42.600;23.476;2022-08-21T06:23:31;19.24;82.68
67942;SHT31;54731;42.600;23.476;2022-08-21T06:25:57;19.24;83.36
67942;SHT31;54731;42.600;23.476;2022-08-21T06:28:22;19.20;83.02
67942;SHT31;54731;42.600;23.476;2022-08-21T06:30:48;19.17;83.07
67942;SHT31;54731;42.600;23.476;2022-08-21T06:33:13;19.06;83.75
67942;SHT31;54731;42.600;23.476;2022-08-21T06:35:39;19.04;83.91
67942;SHT31;54731;42.600;23.476;2022-08-21T06:38:05;19.10;83.64
67942;SHT31;54731;42.600;23.476;2022-08-21T06:40:30;19.18;83.63
67942;SHT31;54731;42.600;23.476;2022-08-21T06:42:57;19.24;84.14
67942;SHT31;54731;42.600;23.476;2022-08-21T06:45:23;19.31;84.01
67942;SHT31;54731;42.600;23.476;2022-08-21T06:47:48;19.41;83.67
67942;SHT31;54731;42.600;23.476;2022-08-21T06:50:14;19.50;84.10
67942;SHT31;54731;42.600;23.476;2022-08-21T06:52:39;19.54;82.86
67942;SHT31;54731;42.600;23.476;2022-08-21T06:55:07;19.47;82.48
67942;SHT31;54731;42.600;23.476;2022-08-21T06:57:34;19.51;83.00
67942;SHT31;54731;42.600;23.476;2022-08-21T06:59:59;19.51;82.91
67942;SHT31;54731;42.600;23.476;2022-08-21T07:02:25;19.53;82.54
67942;SHT31;54731;42.600;23.476;2022-08-21T07:04:50;19.54;82.35
67942;SHT31;54731;42.600;23.476;2022-08-21T07:07:16;19.57;82.21
67942;SHT31;54731;42.600;23.476;2022-08-21T07:09:42;19.59;83.07
67942;SHT31;54731;42.600;23.476;2022-08-21T07:12:08;19.67;83.08
67942;SHT31;54731;42.600;23.476;2022-08-21T07:14:35;19.62;81.31
67942;SHT31;54731;42.600;23.476;2022-08-21T07:17:00;19.62;81.55
67942;SHT31;54731;42.600;23.476;2022-08-21T07:19:25;19.64;81.64
67942;SHT31;54731;42.600;23.476;2022-08-21T07:21:53;19.57;81.71
67942;SHT31;54731;42.600;23.476;2022-08-21T07:24:21;19.61;81.94
67942;SHT31;54731;42.600;23.476;2022-08-21T07:26:47;19.65;82.08
67942;SHT31;54731;42.600;23.476;2022-08-21T07:29:12;19.72;82.29
67942;SHT31;54731;42.600;23.476;2022-08-21T07:31:38;19.81;80.91
67942;SHT31;54731;42.600;23.476;2022-08-21T07:34:03;19.82;80.80
67942;SHT31;54731;42.600;23.476;2022-08-21T07:36:29;19.86;80.86
67942;SHT31;54731;42.600;23.476;2022-08-21T07:38:54;19.99;81.17
67942;SHT31;54731;42.600;23.476;2022-08-21T07:41:24;20.05;80.32
67942;SHT31;54731;42.600;23.476;2022-08-21T07:43:50;20.08;79.77
67942;SHT31;54731;42.600;23.476;2022-08-21T07:46:16;20.16;79.80
67942;SHT31;54731;42.600;23.476;2022-08-21T07:48:41;20.16;79.30
67942;SHT31;54731;42.600;23.476;2022-08-21T07:51:14;20.26;79.15
67942;SHT31;54731;42.600;23.476;2022-08-21T07:53:41;20.32;79.25
67942;SHT31;54731;42.600;23.476;2022-08-21T07:56:07;20.40;79.29
67942;SHT31;54731;42.600;23.476;2022-08-21T07:58:33;20.47;78.26
67942;SHT31;54731;42.600;23.476;2022-08-21T08:00:59;20.53;77.18
67942;SHT31;54731;42.600;23.476;2022-08-21T08:03:25;20.54;77.20
67942;SHT31;54731;42.600;23.476;2022-08-21T08:05:51;20.59;76.99
67942;SHT31;54731;42.600;23.476;2022-08-21T08:08:16;20.67;76.10
67942;SHT31;54731;42.600;23.476;2022-08-21T08:10:43;20.76;76.12
67942;SHT31;54731;42.600;23.476;2022-08-21T08:13:09;20.83;76.23
67942;SHT31;54731;42.600;23.476;2022-08-21T08:15:36;21.04;76.44
67942;SHT31;54731;42.600;23.476;2022-08-21T08:18:01;21.20;74.84
67942;SHT31;54731;42.600;23.476;2022-08-21T08:20:27;21.38;75.25
67942;SHT31;54731;42.600;23.476;2022-08-21T08:22:54;21.52;73.32
67942;SHT31;54731;42.600;23.476;2022-08-21T08:25:21;21.58;74.41
67942;SHT31;54731;42.600;23.476;2022-08-21T08:27:48;21.75;73.40
67942;SHT31;54731;42.600;23.476;2022-08-21T08:30:15;21.86;73.03
67942;SHT31;54731;42.600;23.476;2022-08-21T08:32:41;21.98;73.77
67942;SHT31;54731;42.600;23.476;2022-08-21T08:35:08;22.20;71.32
67942;SHT31;54731;42.600;23.476;2022-08-21T08:37:34;22.39;72.33
67942;SHT31;54731;42.600;23.476;2022-08-21T08:40:04;22.59;70.20
67942;SHT31;54731;42.600;23.476;2022-08-21T08:42:34;22.64;68.25
67942;SHT31;54731;42.600;23.476;2022-08-21T08:47:31;22.84;66.10
67942;SHT31;54731;42.600;23.476;2022-08-21T08:52:40;23.10;67.86
67942;SHT31;54731;42.600;23.476;2022-08-21T08:55:13;23.16;66.24
67942;SHT31;54731;42.600;23.476;2022-08-21T08:57:43;23.21;65.57
67942;SHT31;54731;42.600;23.476;2022-08-21T09:00:12;23.22;65.80
67942;SHT31;54731;42.600;23.476;2022-08-21T09:02:39;23.29;67.16
67942;SHT31;54731;42.600;23.476;2022-08-21T09:05:06;23.25;66.30
67942;SHT31;54731;42.600;23.476;2022-08-21T09:10:20;23.07;65.96
67942;SHT31;54731;42.600;23.476;2022-08-21T09:15:19;22.91;66.20
67942;SHT31;54731;42.600;23.476;2022-08-21T09:26:08;22.71;66.83
67942;SHT31;54731;42.600;23.476;2022-08-21T09:28:37;22.61;67.43
67942;SHT31;54731;42.600;23.476;2022-08-21T09:31:06;22.61;66.76
67942;SHT31;54731;42.600;23.476;2022-08-21T09:33:33;22.70;67.50
67942;SHT31;54731;42.600;23.476;2022-08-21T09:35:58;22.67;67.05
67942;SHT31;54731;42.600;23.476;2022-08-21T09:38:33;22.71;66.40
67942;SHT31;54731;42.600;23.476;2022-08-21T09:41:09;22.71;67.28
67942;SHT31;54731;42.600;23.476;2022-08-21T09:43:36;22.71;67.81
67942;SHT31;54731;42.600;23.476;2022-08-21T09:46:09;22.74;68.33
67942;SHT31;54731;42.600;23.476;2022-08-21T09:48:46;22.74;65.98
67942;SHT31;54731;42.600;23.476;2022-08-21T09:51:22;22.74;66.25
67942;SHT31;54731;42.600;23.476;2022-08-21T09:56:39;22.71;64.93
67942;SHT31;54731;42.600;23.476;2022-08-21T09:59:30;22.75;65.52
67942;SHT31;54731;42.600;23.476;2022-08-21T10:01:59;22.64;66.11
67942;SHT31;54731;42.600;23.476;2022-08-21T10:04:32;22.71;66.53
67942;SHT31;54731;42.600;23.476;2022-08-21T10:07:12;22.80;67.25
67942;SHT31;54731;42.600;23.476;2022-08-21T10:09:39;22.80;67.29
67942;SHT31;54731;42.600;23.476;2022-08-21T10:12:27;22.87;66.99
67942;SHT31;54731;42.600;23.476;2022-08-21T10:18:03;22.75;65.49
67942;SHT31;54731;42.600;23.476;2022-08-21T10:20:42;22.81;66.68
67942;SHT31;54731;42.600;23.476;2022-08-21T10:28:51;23.11;67.21
67942;SHT31;54731;42.600;23.476;2022-08-21T10:36:46;22.95;66.59
67942;SHT31;54731;42.600;23.476;2022-08-21T10:46:54;23.38;66.37
67942;SHT31;54731;42.600;23.476;2022-08-21T10:49:25;23.59;65.64
67942;SHT31;54731;42.600;23.476;2022-08-21T10:54:53;24.03;64.85
67942;SHT31;54731;42.600;23.476;2022-08-21T10:57:41;24.33;64.47
67942;SHT31;54731;42.600;23.476;2022-08-21T11:00:15;24.44;62.53
67942;SHT31;54731;42.600;23.476;2022-08-21T11:03:09;24.63;62.40
67942;SHT31;54731;42.600;23.476;2022-08-21T11:08:40;25.08;60.96
67942;SHT31;54731;42.600;23.476;2022-08-21T11:11:07;25.18;60.55
67942;SHT31;54731;42.600;23.476;2022-08-21T11:16:23;25.36;60.87
67942;SHT31;54731;42.600;23.476;2022-08-21T11:18:57;25.87;59.36
67942;SHT31;54731;42.600;23.476;2022-08-21T11:21:28;26.18;58.28
67942;SHT31;54731;42.600;23.476;2022-08-21T11:24:02;26.41;57.56
67942;SHT31;54731;42.600;23.476;2022-08-21T11:26:45;26.72;57.88
67942;SHT31;54731;42.600;23.476;2022-08-21T11:37:08;27.29;53.93
67942;SHT31;54731;42.600;23.476;2022-08-21T11:40:00;27.57;54.60
67942;SHT31;54731;42.600;23.476;2022-08-21T11:43:00;27.73;51.44
67942;SHT31;54731;42.600;23.476;2022-08-21T11:45:33;27.19;54.79
67942;SHT31;54731;42.600;23.476;2022-08-21T11:50:42;27.66;53.69
67942;SHT31;54731;42.600;23.476;2022-08-21T11:53:12;27.87;53.12
67942;SHT31;54731;42.600;23.476;2022-08-21T11:55:55;27.63;53.15
67942;SHT31;54731;42.600;23.476;2022-08-21T11:58:46;27.89;54.18
67942;SHT31;54731;42.600;23.476;2022-08-21T12:01:22;28.04;53.03
67942;SHT31;54731;42.600;23.476;2022-08-21T12:06:51;27.94;53.01
67942;SHT31;54731;42.600;23.476;2022-08-21T12:09:37;28.01;52.90
67942;SHT31;54731;42.600;23.476;2022-08-21T12:12:27;28.01;53.23
67942;SHT31;54731;42.600;23.476;2022-08-21T12:15:25;28.00;53.64
67942;SHT31;54731;42.600;23.476;2022-08-21T12:18:27;27.96;53.53
67942;SHT31;54731;42.600;23.476;2022-08-21T12:21:17;27.79;53.54
67942;SHT31;54731;42.600;23.476;2022-08-21T12:28:38;27.13;54.51
67942;SHT31;54731;42.600;23.476;2022-08-21T12:31:04;26.77;54.98
67942;SHT31;54731;42.600;23.476;2022-08-21T12:33:41;26.31;56.34
67942;SHT31;54731;42.600;23.476;2022-08-21T12:36:12;26.23;56.60
67942;SHT31;54731;42.600;23.476;2022-08-21T12:38:49;26.01;56.58
67942;SHT31;54731;42.600;23.476;2022-08-21T12:41:22;25.41;58.57
67942;SHT31;54731;42.600;23.476;2022-08-21T12:44:04;25.29;59.87
67942;SHT31;54731;42.600;23.476;2022-08-21T12:46:51;24.96;59.35
67942;SHT31;54731;42.600;23.476;2022-08-21T12:49:30;24.80;59.69
67942;SHT31;54731;42.600;23.476;2022-08-21T12:54:42;24.64;60.26
67942;SHT31;54731;42.600;23.476;2022-08-21T12:57:18;24.36;61.68
67942;SHT31;54731;42.600;23.476;2022-08-21T12:59:44;24.00;62.56
67942;SHT31;54731;42.600;23.476;2022-08-21T13:02:18;24.02;62.83
67942;SHT31;54731;42.600;23.476;2022-08-21T13:04:44;23.90;62.66
67942;SHT31;54731;42.600;23.476;2022-08-21T13:07:13;23.75;63.20
67942;SHT31;54731;42.600;23.476;2022-08-21T13:09:48;23.59;64.27
67942;SHT31;54731;42.600;23.476;2022-08-21T13:12:16;23.51;64.89
67942;SHT31;54731;42.600;23.476;2022-08-21T13:14:44;23.41;65.08
67942;SHT31;54731;42.600;23.476;2022-08-21T13:17:12;23.38;66.23
67942;SHT31;54731;42.600;23.476;2022-08-21T13:19:38;23.37;66.44
67942;SHT31;54731;42.600;23.476;2022-08-21T13:22:12;23.28;66.37
67942;SHT31;54731;42.600;23.476;2022-08-21T13:24:38;23.25;66.46
67942;SHT31;54731;42.600;23.476;2022-08-21T13:27:17;23.19;67.14
67942;SHT31;54731;42.600;23.476;2022-08-21T13:29:43;22.98;67.28
67942;SHT31;54731;42.600;23.476;2022-08-21T13:32:21;22.97;66.96
67942;SHT31;54731;42.600;23.476;2022-08-21T13:34:50;22.91;68.03
67942;SHT31;54731;42.600;23.476;2022-08-21T13:37:17;22.83;68.66
67942;SHT31;54731;42.600;23.476;2022-08-21T13:39:49;22.81;68.89
67942;SHT31;54731;42.600;23.476;2022-08-21T13:42:14;22.68;69.52
67942;SHT31;54731;42.600;23.476;2022-08-21T13:44:45;22.50;70.66
67942;SHT31;54731;42.600;23.476;2022-08-21T13:47:14;22.44;70.76
67942;SHT31;54731;42.600;23.476;2022-08-21T13:49:43;22.35;71.16
67942;SHT31;54731;42.600;23.476;2022-08-21T13:52:24;22.24;71.92
67942;SHT31;54731;42.600;23.476;2022-08-21T13:54:59;22.16;71.89
67942;SHT31;54731;42.600;23.476;2022-08-21T13:57:28;22.12;72.11
67942;SHT31;54731;42.600;23.476;2022-08-21T14:00:20;22.10;72.75
67942;SHT31;54731;42.600;23.476;2022-08-21T14:02:51;22.10;72.36
67942;SHT31;54731;42.600;23.476;2022-08-21T14:05:25;22.03;72.86
67942;SHT31;54731;42.600;23.476;2022-08-21T14:08:07;22.03;73.34
67942;SHT31;54731;42.600;23.476;2022-08-21T14:10:46;22.09;73.13
67942;SHT31;54731;42.600;23.476;2022-08-21T14:13:35;22.06;72.43
67942;SHT31;54731;42.600;23.476;2022-08-21T14:16:09;21.92;72.96
67942;SHT31;54731;42.600;23.476;2022-08-21T14:18:53;21.93;74.13
67942;SHT31;54731;42.600;23.476;2022-08-21T14:21:35;21.93;71.56
67942;SHT31;54731;42.600;23.476;2022-08-21T14:24:13;21.86;72.09
67942;SHT31;54731;42.600;23.476;2022-08-21T14:27:03;21.82;70.94
67942;SHT31;54731;42.600;23.476;2022-08-21T14:29:38;21.78;71.77
67942;SHT31;54731;42.600;23.476;2022-08-21T14:32:25;21.81;72.67
67942;SHT31;54731;42.600;23.476;2022-08-21T14:34:52;21.79;72.09
67942;SHT31;54731;42.600;23.476;2022-08-21T14:37:18;21.90;71.07
67942;SHT31;54731;42.600;23.476;2022-08-21T14:39:44;21.98;71.29
67942;SHT31;54731;42.600;23.476;2022-08-21T14:42:11;22.12;70.67
67942;SHT31;54731;42.600;23.476;2022-08-21T14:44:37;22.26;70.71
67942;SHT31;54731;42.600;23.476;2022-08-21T14:47:03;22.49;69.67
67942;SHT31;54731;42.600;23.476;2022-08-21T14:49:29;22.71;68.20
67942;SHT31;54731;42.600;23.476;2022-08-21T14:51:56;22.95;68.67
67942;SHT31;54731;42.600;23.476;2022-08-21T14:54:27;23.25;68.65
67942;SHT31;54731;42.600;23.476;2022-08-21T14:56:53;23.55;66.84
67942;SHT31;54731;42.600;23.476;2022-08-21T14:59:20;23.89;64.00
67942;SHT31;54731;42.600;23.476;2022-08-21T15:01:47;24.21;63.15
67942;SHT31;54731;42.600;23.476;2022-08-21T15:04:12;24.61;62.89
67942;SHT31;54731;42.600;23.476;2022-08-21T15:06:38;25.04;61.85
67942;SHT31;54731;42.600;23.476;2022-08-21T15:09:03;25.45;60.17
67942;SHT31;54731;42.600;23.476;2022-08-21T15:11:32;25.77;58.97
67942;SHT31;54731;42.600;23.476;2022-08-21T15:14:00;26.14;58.19
67942;SHT31;54731;42.600;23.476;2022-08-21T15:16:28;26.44;56.61
67942;SHT31;54731;42.600;23.476;2022-08-21T15:18:54;26.84;56.35
67942;SHT31;54731;42.600;23.476;2022-08-21T15:21:19;27.08;55.82
67942;SHT31;54731;42.600;23.476;2022-08-21T15:23:45;27.16;55.55
67942;SHT31;54731;42.600;23.476;2022-08-21T15:26:11;27.33;55.03
67942;SHT31;54731;42.600;23.476;2022-08-21T15:28:36;27.33;54.54
67942;SHT31;54731;42.600;23.476;2022-08-21T15:31:03;27.31;54.67
67942;SHT31;54731;42.600;23.476;2022-08-21T15:33:28;27.23;53.43
67942;SHT31;54731;42.600;23.476;2022-08-21T15:35:54;27.09;54.19
67942;SHT31;54731;42.600;23.476;2022-08-21T15:38:19;27.01;54.30
67942;SHT31;54731;42.600;23.476;2022-08-21T15:40:45;26.87;55.37
67942;SHT31;54731;42.600;23.476;2022-08-21T15:43:29;26.62;56.14
67942;SHT31;54731;42.600;23.476;2022-08-21T15:45:55;26.50;56.36
67942;SHT31;54731;42.600;23.476;2022-08-21T15:48:21;26.24;58.09
67942;SHT31;54731;42.600;23.476;2022-08-21T15:50:47;26.17;56.86
67942;SHT31;54731;42.600;23.476;2022-08-21T15:53:13;26.17;57.50
67942;SHT31;54731;42.600;23.476;2022-08-21T15:55:39;26.14;57.73
67942;SHT31;54731;42.600;23.476;2022-08-21T15:58:05;26.00;57.90
67942;SHT31;54731;42.600;23.476;2022-08-21T16:00:34;25.83;59.41
67942;SHT31;54731;42.600;23.476;2022-08-21T16:03:03;25.80;59.02
67942;SHT31;54731;42.600;23.476;2022-08-21T16:05:29;25.75;60.00
67942;SHT31;54731;42.600;23.476;2022-08-21T16:07:54;25.77;59.98
67942;SHT31;54731;42.600;23.476;2022-08-21T16:10:22;25.79;59.88
67942;SHT31;54731;42.600;23.476;2022-08-21T16:12:58;25.80;60.04
67942;SHT31;54731;42.600;23.476;2022-08-21T16:15:26;25.67;60.37
67942;SHT31;54731;42.600;23.476;2022-08-21T16:17:52;25.65;60.54
67942;SHT31;54731;42.600;23.476;2022-08-21T16:20:27;25.56;60.81
67942;SHT31;54731;42.600;23.476;2022-08-21T16:22:55;25.55;59.97
67942;SHT31;54731;42.600;23.476;2022-08-21T16:25:21;25.31;62.04
67942;SHT31;54731;42.600;23.476;2022-08-21T16:27:54;25.12;62.99
67942;SHT31;54731;42.600;23.476;2022-08-21T16:30:20;24.75;64.73
67942;SHT31;54731;42.600;23.476;2022-08-21T16:32:47;24.67;64.60
67942;SHT31;54731;42.600;23.476;2022-08-21T16:35:15;24.60;64.90
67942;SHT31;54731;42.600;23.476;2022-08-21T16:37:42;24.44;65.37
67942;SHT31;54731;42.600;23.476;2022-08-21T16:40:09;24.34;65.85